Time;durP1;ratioP1;P1;durP2;ratioP2;P2;SDS_P1;SDS_P2;PMS_P1;PMS_P2;Temp;Humidity;BMP_temperature;BMP_pressure;BME280_temperature;BME280_humidity;BME280_pressure;Samples;Min_cycle;Max_cycle;Signal;HPM_P1;HPM_P2
2021/06/03 00:02:08;;;;;;;20.35;11.90;;;10.30;94.10;;;;;;5018332;28;20662;-85
2021/06/03 00:04:34;;;;;;;21.50;13.25;;;10.30;94.20;;;;;;5023264;28;20030;-84
2021/06/03 00:06:59;;;;;;;25.63;13.75;;;10.30;94.30;;;;;;5023358;28;20033;-85
2021/06/03 00:09:27;;;;;;;20.50;12.07;;;10.30;94.50;;;;;;5002063;28;20397;-85
2021/06/03 00:11:53;;;;;;;20.52;12.15;;;10.30;94.50;;;;;;5021603;28;20036;-85
2021/06/03 00:14:19;;;;;;;24.92;13.13;;;10.30;94.40;;;;;;5019668;28;20439;-85
2021/06/03 00:16:46;;;;;;;21.77;11.63;;;10.40;94.40;;;;;;5021457;28;20021;-84
2021/06/03 00:19:11;;;;;;;21.60;12.38;;;10.40;94.20;;;;;;5018582;28;20017;-85
2021/06/03 00:21:40;;;;;;;22.25;11.77;;;10.40;94.30;;;;;;5000238;28;20045;-86
2021/06/03 00:24:06;;;;;;;23.58;11.85;;;10.40;94.10;;;;;;5020090;28;20021;-84
2021/06/03 00:26:36;;;;;;;18.48;11.07;;;10.40;94.20;;;;;;5018223;28;20389;-86
2021/06/03 00:29:04;;;;;;;16.98;10.60;;;10.50;94.00;;;;;;5017442;28;20413;-84
2021/06/03 00:31:30;;;;;;;19.23;11.98;;;10.50;94.00;;;;;;5003681;28;20156;-84
2021/06/03 00:33:55;;;;;;;21.30;11.68;;;10.40;94.00;;;;;;5021041;28;20073;-84
2021/06/03 00:36:21;;;;;;;17.45;10.60;;;10.30;94.20;;;;;;5019276;28;20121;-85
2021/06/03 00:38:47;;;;;;;15.18;9.13;;;10.40;94.30;;;;;;5005020;28;20110;-85
2021/06/03 00:41:14;;;;;;;19.77;9.45;;;10.40;93.90;;;;;;5024972;28;20049;-85
2021/06/03 00:43:41;;;;;;;14.00;8.65;;;10.40;93.80;;;;;;5024006;28;20116;-85
2021/06/03 00:46:07;;;;;;;15.77;8.90;;;10.40;93.50;;;;;;5020080;28;20021;-85
2021/06/03 00:48:34;;;;;;;15.95;10.18;;;10.40;93.40;;;;;;5020274;28;20044;-85
2021/06/03 00:51:02;;;;;;;16.33;9.35;;;10.30;93.40;;;;;;5022135;28;20029;-85
2021/06/03 00:53:28;;;;;;;17.55;10.07;;;10.40;93.50;;;;;;5015906;28;20343;-85
2021/06/03 00:55:56;;;;;;;18.35;9.10;;;10.40;93.70;;;;;;5018474;28;20109;-84
2021/06/03 00:58:23;;;;;;;15.35;8.68;;;10.40;93.40;;;;;;5020795;28;20025;-84
2021/06/03 01:00:51;;;;;;;14.85;8.80;;;10.50;93.20;;;;;;5018022;28;20079;-85
2021/06/03 01:03:18;;;;;;;11.70;7.90;;;10.50;93.50;;;;;;5018491;28;20094;-85
2021/06/03 01:05:47;;;;;;;17.30;8.90;;;10.50;93.30;;;;;;5020018;28;20033;-83
2021/06/03 01:08:18;;;;;;;15.88;8.07;;;10.50;93.30;;;;;;5015884;28;20113;-84
2021/06/03 01:10:49;;;;;;;13.95;8.32;;;10.50;93.50;;;;;;5001131;28;20022;-86
2021/06/03 01:13:21;;;;;;;12.85;8.23;;;10.40;93.50;;;;;;5020429;28;20037;-84
2021/06/03 01:15:49;;;;;;;14.35;8.40;;;10.30;93.60;;;;;;5016990;28;20034;-86
2021/06/03 01:18:15;;;;;;;13.65;8.00;;;10.30;93.70;;;;;;5000632;28;20545;-85
2021/06/03 01:20:45;;;;;;;13.65;8.68;;;10.30;93.60;;;;;;5020663;28;20018;-84
2021/06/03 01:23:36;;;;;;;13.55;8.32;;;10.50;93.40;;;;;;5017030;28;20124;-84
2021/06/03 01:26:03;;;;;;;13.50;8.38;;;10.40;93.60;;;;;;5016274;28;20029;-85
2021/06/03 01:28:30;;;;;;;16.25;9.15;;;10.50;93.60;;;;;;5018126;28;20030;-87
2021/06/03 01:30:57;;;;;;;15.50;9.13;;;10.50;93.60;;;;;;5017923;28;20084;-84
2021/06/03 01:33:29;;;;;;;12.98;9.15;;;10.50;93.80;;;;;;5022744;28;21191;-84
2021/06/03 01:35:58;;;;;;;12.60;8.88;;;10.50;94.30;;;;;;5021096;28;20034;-85
2021/06/03 01:38:30;;;;;;;17.60;8.65;;;10.40;94.50;;;;;;4999203;28;20033;-85
2021/06/03 01:40:57;;;;;;;12.68;8.45;;;10.50;94.60;;;;;;5017495;28;20047;-85
2021/06/03 01:43:25;;;;;;;16.08;8.88;;;10.50;94.60;;;;;;5017501;28;20092;-86
2021/06/03 01:45:51;;;;;;;16.17;10.10;;;10.50;94.50;;;;;;5020350;28;20077;-85
2021/06/03 01:48:19;;;;;;;11.75;8.90;;;10.50;94.80;;;;;;5017076;28;20080;-85
2021/06/03 01:50:48;;;;;;;13.13;8.90;;;10.40;94.70;;;;;;5018374;28;20022;-86
2021/06/03 01:53:15;;;;;;;15.98;9.07;;;10.50;94.50;;;;;;5018972;28;20026;-85
2021/06/03 01:55:41;;;;;;;18.30;9.55;;;10.50;94.40;;;;;;4998210;28;20530;-86
2021/06/03 01:58:07;;;;;;;14.20;9.07;;;10.50;94.60;;;;;;5016656;28;20370;-85
2021/06/03 02:00:33;;;;;;;15.90;9.18;;;10.50;94.50;;;;;;5017782;28;20014;-85
2021/06/03 02:03:00;;;;;;;17.35;9.77;;;10.50;94.50;;;;;;5017774;28;20037;-86
2021/06/03 02:05:26;;;;;;;13.30;8.93;;;10.60;94.60;;;;;;5018628;28;20021;-86
2021/06/03 02:07:52;;;;;;;15.35;9.18;;;10.50;94.70;;;;;;5014336;28;20057;-86
2021/06/03 02:10:21;;;;;;;18.73;10.57;;;10.50;94.60;;;;;;5016762;28;20022;-85
2021/06/03 02:13:15;;;;;;;15.43;9.80;;;10.50;94.80;;;;;;4997378;28;20103;-85
2021/06/03 02:15:55;;;;;;;17.15;9.48;;;10.50;94.70;;;;;;5001298;28;20041;-86
2021/06/03 02:18:22;;;;;;;18.17;10.05;;;10.50;94.70;;;;;;5020433;28;20025;-86
2021/06/03 02:20:51;;;;;;;17.90;9.73;;;10.50;94.90;;;;;;5020611;28;20358;-85
2021/06/03 02:23:17;;;;;;;14.57;9.68;;;10.50;94.80;;;;;;5004540;28;20034;-86
2021/06/03 02:25:44;;;;;;;14.70;9.48;;;10.50;95.20;;;;;;5019180;28;20032;-85
2021/06/03 02:28:10;;;;;;;14.48;9.18;;;10.40;95.10;;;;;;5003452;28;20041;-86
2021/06/03 02:30:36;;;;;;;15.75;9.95;;;10.50;95.20;;;;;;5023697;28;20374;-85
2021/06/03 02:33:03;;;;;;;13.98;8.90;;;10.50;95.00;;;;;;5022765;28;20083;-86
2021/06/03 02:35:29;;;;;;;18.55;10.32;;;10.50;95.00;;;;;;5020691;28;20025;-85
2021/06/03 02:37:55;;;;;;;14.63;9.15;;;10.60;95.00;;;;;;5018340;28;20056;-85
2021/06/03 02:40:24;;;;;;;19.00;10.00;;;10.60;94.90;;;;;;5021847;28;20096;-85
2021/06/03 02:42:52;;;;;;;15.13;9.75;;;10.60;94.90;;;;;;5020119;28;20025;-85
2021/06/03 02:45:24;;;;;;;13.68;9.48;;;10.60;95.00;;;;;;5020291;28;20038;-85
2021/06/03 02:47:51;;;;;;;21.92;9.98;;;10.50;95.10;;;;;;5026261;28;20033;-85
2021/06/03 02:50:17;;;;;;;15.50;9.65;;;10.60;95.00;;;;;;5029506;28;20417;-85
2021/06/03 02:52:43;;;;;;;14.02;9.80;;;10.60;94.70;;;;;;5020519;28;20018;-85
2021/06/03 02:55:13;;;;;;;15.32;9.30;;;10.70;94.90;;;;;;5022335;28;20116;-83
2021/06/03 02:57:39;;;;;;;14.98;9.55;;;10.70;94.70;;;;;;5018540;28;20136;-84
2021/06/03 03:00:26;;;;;;;17.65;10.00;;;10.70;94.80;;;;;;5022521;28;20552;-84
2021/06/03 03:02:52;;;;;;;14.63;9.43;;;10.80;94.90;;;;;;5008543;28;20021;-86
2021/06/03 03:05:19;;;;;;;15.02;9.60;;;10.80;95.00;;;;;;5020982;28;20032;-86
2021/06/03 03:07:45;;;;;;;15.65;9.90;;;10.80;94.80;;;;;;5018346;28;20049;-85
2021/06/03 03:10:16;;;;;;;17.50;9.57;;;10.90;95.40;;;;;;5021742;28;20096;-84
2021/06/03 03:12:42;;;;;;;13.48;9.63;;;10.90;95.20;;;;;;5021470;28;20132;-85
2021/06/03 03:15:12;;;;;;;19.77;10.57;;;10.90;95.30;;;;;;5023669;28;20021;-85
2021/06/03 03:17:38;;;;;;;;;;;10.90;95.50;;;;;;5021968;28;20036;-85
2021/06/03 03:20:05;;;;;;;13.80;9.25;;;11.00;95.50;;;;;;5021405;28;19917;-84
2021/06/03 03:22:31;;;;;;;15.52;10.18;;;11.10;95.60;;;;;;5018059;28;20026;-83
2021/06/03 03:24:57;;;;;;;16.52;8.88;;;11.20;95.30;;;;;;5019564;28;20030;-85
2021/06/03 03:27:23;;;;;;;13.65;8.90;;;11.20;95.40;;;;;;5020250;28;20433;-85
2021/06/03 03:29:48;;;;;;;14.15;9.10;;;11.30;95.50;;;;;;5020902;28;20193;-85
2021/06/03 03:32:14;;;;;;;16.20;9.35;;;11.30;95.20;;;;;;5022109;28;20546;-85
2021/06/03 03:34:40;;;;;;;17.73;10.00;;;11.40;95.20;;;;;;5020067;28;20033;-86
2021/06/03 03:37:06;;;;;;;15.35;9.50;;;11.40;95.20;;;;;;5023792;28;20054;-86
2021/06/03 03:39:32;;;;;;;12.50;8.82;;;11.50;95.50;;;;;;5023127;28;20040;-85
2021/06/03 03:41:58;;;;;;;13.73;8.50;;;11.60;95.10;;;;;;5023474;28;20025;-86
2021/06/03 03:44:24;;;;;;;13.55;9.00;;;11.70;94.90;;;;;;5022359;28;20046;-86
2021/06/03 03:46:49;;;;;;;18.20;10.00;;;11.80;94.90;;;;;;5017325;28;20489;-84
2021/06/03 03:49:16;;;;;;;17.23;11.30;;;11.80;95.20;;;;;;5021061;28;20096;-86
2021/06/03 03:51:41;;;;;;;18.33;11.32;;;11.90;95.40;;;;;;5017163;28;20022;-83
2021/06/03 03:54:07;;;;;;;15.15;10.90;;;11.90;95.50;;;;;;5019592;28;20032;-84
2021/06/03 03:56:33;;;;;;;15.52;10.73;;;12.10;95.40;;;;;;5018776;28;20412;-84
2021/06/03 03:58:59;;;;;;;16.77;11.10;;;12.10;95.70;;;;;;5018839;28;20113;-85
2021/06/03 04:01:28;;;;;;;18.80;11.40;;;12.20;95.70;;;;;;5021388;28;20536;-83
2021/06/03 04:03:53;;;;;;;14.38;10.85;;;12.30;95.70;;;;;;5021901;28;20402;-84
2021/06/03 04:06:19;;;;;;;20.10;10.77;;;12.50;95.70;;;;;;5020030;28;20027;-84
2021/06/03 04:08:45;;;;;;;17.52;10.82;;;12.60;95.90;;;;;;5022848;28;20493;-84
2021/06/03 04:11:11;;;;;;;13.93;11.13;;;12.90;95.80;;;;;;5000274;28;20017;-84
2021/06/03 04:13:36;;;;;;;15.07;10.48;;;13.20;95.20;;;;;;5020977;28;20030;-85
2021/06/03 04:16:03;;;;;;;15.95;9.63;;;14.10;93.70;;;;;;5002868;28;20072;-85
2021/06/03 04:18:29;;;;;;;16.75;10.43;;;15.30;91.00;;;;;;5017848;28;20014;-85
2021/06/03 04:20:55;;;;;;;15.05;8.80;;;15.90;86.30;;;;;;5003319;28;20552;-85
2021/06/03 04:23:21;;;;;;;16.92;8.65;;;16.20;83.50;;;;;;5023442;28;20022;-85
2021/06/03 04:25:47;;;;;;;13.40;9.05;;;15.90;80.70;;;;;;5017542;28;21112;-85
2021/06/03 04:28:12;;;;;;;13.00;8.45;;;16.00;81.80;;;;;;5018306;28;20037;-83
2021/06/03 04:30:41;;;;;;;12.05;9.55;;;16.10;80.40;;;;;;5020466;28;20022;-84
2021/06/03 04:33:08;;;;;;;18.35;8.90;;;16.10;80.90;;;;;;5018656;28;20402;-84
2021/06/03 04:35:34;;;;;;;14.55;9.05;;;16.00;81.10;;;;;;5018588;28;20028;-83
2021/06/03 04:38:00;;;;;;;11.27;7.78;;;16.00;81.30;;;;;;5017715;28;20604;-84
2021/06/03 04:40:26;;;;;;;12.85;8.15;;;15.90;81.30;;;;;;5019559;28;20022;-83
2021/06/03 04:42:52;;;;;;;13.98;8.90;;;15.90;82.80;;;;;;5018292;28;20033;-84
2021/06/03 04:45:20;;;;;;;19.00;8.32;;;16.30;82.30;;;;;;5017832;28;20032;-84
2021/06/03 04:47:46;;;;;;;13.18;8.40;;;16.50;80.70;;;;;;5019092;28;20067;-84
2021/06/03 04:50:14;;;;;;;10.80;8.43;;;16.80;80.40;;;;;;5018545;28;20060;-84
2021/06/03 04:52:40;;;;;;;18.65;8.13;;;17.10;80.50;;;;;;5018207;28;20029;-83
2021/06/03 04:55:15;;;;;;;18.05;8.32;;;17.00;77.90;;;;;;5019048;28;21734;-83
2021/06/03 04:57:41;;;;;;;15.02;7.72;;;17.00;77.90;;;;;;5017498;28;20045;-82
2021/06/03 05:00:14;;;;;;;13.27;6.97;;;17.00;77.20;;;;;;5017737;28;20480;-83
2021/06/03 05:02:41;;;;;;;10.98;7.70;;;17.00;77.30;;;;;;5020032;28;20037;-83
2021/06/03 05:05:08;;;;;;;14.77;8.27;;;16.90;77.90;;;;;;5017559;28;20041;-82
2021/06/03 05:07:34;;;;;;;14.73;7.82;;;16.90;78.90;;;;;;5019320;28;20549;-85
2021/06/03 05:09:59;;;;;;;13.07;7.57;;;17.00;78.90;;;;;;5017420;28;20108;-85
2021/06/03 05:12:25;;;;;;;11.50;7.47;;;16.90;78.40;;;;;;5017414;28;20033;-83
2021/06/03 05:14:51;;;;;;;14.35;7.43;;;16.90;78.70;;;;;;5017223;28;20037;-84
2021/06/03 05:17:17;;;;;;;10.02;6.53;;;16.90;78.50;;;;;;5019562;28;20109;-85
2021/06/03 05:19:42;;;;;;;10.93;6.43;;;17.00;79.00;;;;;;5017097;28;20041;-84
2021/06/03 05:22:08;;;;;;;10.52;6.60;;;17.00;78.80;;;;;;5018287;28;20018;-85
2021/06/03 05:24:34;;;;;;;12.05;6.90;;;17.10;78.70;;;;;;5020028;28;20049;-85
2021/06/03 05:27:00;;;;;;;15.18;6.90;;;17.00;79.70;;;;;;5019654;28;20025;-85
2021/06/03 05:29:26;;;;;;;10.48;6.47;;;17.10;79.30;;;;;;5018918;28;20033;-85
2021/06/03 05:31:52;;;;;;;14.25;6.30;;;17.00;79.00;;;;;;5020494;28;20099;-84
2021/06/03 05:34:19;;;;;;;7.47;5.90;;;17.00;79.50;;;;;;5021394;28;20350;-84
2021/06/03 05:36:45;;;;;;;9.65;6.03;;;17.00;78.70;;;;;;5017583;28;20038;-85
2021/06/03 05:39:11;;;;;;;11.38;6.40;;;17.00;79.50;;;;;;5024338;28;20033;-86
2021/06/03 05:41:37;;;;;;;13.70;6.63;;;17.10;79.60;;;;;;5019553;28;20022;-85
2021/06/03 05:44:04;;;;;;;10.45;6.15;;;17.20;79.60;;;;;;5017361;28;20040;-85
2021/06/03 05:46:30;;;;;;;8.32;5.35;;;17.30;79.20;;;;;;5026409;28;20025;-85
2021/06/03 05:48:56;;;;;;;10.10;5.80;;;17.50;78.20;;;;;;5027832;28;20397;-85
2021/06/03 05:51:22;;;;;;;9.65;5.25;;;17.50;79.00;;;;;;5027183;28;20022;-84
2021/06/03 05:53:47;;;;;;;11.25;5.18;;;17.70;80.30;;;;;;5024162;28;20033;-85
2021/06/03 05:56:13;;;;;;;7.10;5.22;;;17.80;78.60;;;;;;5003085;28;20018;-84
2021/06/03 05:58:39;;;;;;;8.82;5.00;;;17.90;76.50;;;;;;5031768;28;20036;-85
2021/06/03 06:01:04;;;;;;;11.50;5.25;;;18.00;77.10;;;;;;5033967;28;20064;-85
2021/06/03 06:03:55;;;;;;;11.50;5.35;;;18.10;76.20;;;;;;5026421;28;20053;-86
2021/06/03 06:06:24;;;;;;;7.72;4.70;;;18.10;76.60;;;;;;5028798;28;20038;-84
2021/06/03 06:08:52;;;;;;;11.10;4.78;;;18.20;75.50;;;;;;5021451;28;20048;-85
2021/06/03 06:11:18;;;;;;;7.78;4.80;;;18.30;76.30;;;;;;5027899;28;20017;-86
2021/06/03 06:13:44;;;;;;;8.65;4.30;;;18.40;75.70;;;;;;5022231;28;20556;-86
2021/06/03 06:16:11;;;;;;;10.80;4.70;;;18.50;73.70;;;;;;5021090;28;20018;-87
2021/06/03 06:18:37;;;;;;;8.07;4.15;;;18.50;74.80;;;;;;5025042;28;20463;-87
2021/06/03 06:21:04;;;;;;;26.27;4.88;;;18.60;74.70;;;;;;5024523;28;20072;-87
2021/06/03 06:23:33;;;;;;;9.90;4.85;;;18.70;73.00;;;;;;5022506;28;20029;-86
2021/06/03 06:25:58;;;;;;;9.70;4.45;;;18.80;72.90;;;;;;5001650;28;20021;-85
2021/06/03 06:28:24;;;;;;;11.18;3.92;;;18.90;72.90;;;;;;5023632;28;20420;-86
2021/06/03 06:30:50;;;;;;;7.35;3.90;;;19.00;73.40;;;;;;5022078;28;20040;-86
2021/06/03 06:33:15;;;;;;;5.68;3.58;;;19.00;73.70;;;;;;5026143;28;20021;-86
2021/06/03 06:35:44;;;;;;;5.20;3.50;;;19.10;71.90;;;;;;5020012;28;20029;-87
2021/06/03 06:38:10;;;;;;;6.05;3.45;;;19.20;71.00;;;;;;5021077;28;20045;-83
2021/06/03 06:40:36;;;;;;;7.63;3.47;;;19.40;71.70;;;;;;5004512;28;20029;-85
2021/06/03 06:43:02;;;;;;;6.68;3.30;;;19.40;70.80;;;;;;5023486;28;20480;-85
2021/06/03 06:45:29;;;;;;;6.70;3.42;;;19.50;69.80;;;;;;5019200;28;20034;-86
2021/06/03 06:47:55;;;;;;;6.85;2.97;;;19.60;70.60;;;;;;5025379;28;20444;-86
2021/06/03 06:50:23;;;;;;;9.32;2.90;;;19.80;66.60;;;;;;5026870;28;20033;-84
2021/06/03 06:52:49;;;;;;;10.65;3.25;;;20.00;67.10;;;;;;5026982;28;20033;-85
2021/06/03 06:55:15;;;;;;;8.07;3.05;;;20.10;67.60;;;;;;5031426;28;20488;-84
2021/06/03 06:57:40;;;;;;;7.90;3.25;;;20.10;66.10;;;;;;5022141;28;20025;-85
2021/06/03 07:00:09;;;;;;;5.10;3.40;;;20.10;64.80;;;;;;5008060;28;20536;-85
2021/06/03 07:02:35;;;;;;;6.75;2.90;;;20.10;65.50;;;;;;5029040;28;20033;-85
2021/06/03 07:05:02;;;;;;;7.45;2.63;;;20.20;65.70;;;;;;5028494;28;20078;-85
2021/06/03 07:07:28;;;;;;;4.18;2.88;;;20.30;65.60;;;;;;5022001;28;20040;-85
2021/06/03 07:09:53;;;;;;;6.68;2.72;;;20.50;61.20;;;;;;5030198;28;20114;-85
2021/06/03 07:12:19;;;;;;;10.93;3.13;;;20.50;64.20;;;;;;5030161;28;20561;-85
2021/06/03 07:14:44;;;;;;;6.70;2.83;;;20.60;62.60;;;;;;5028899;28;20044;-85
2021/06/03 07:17:10;;;;;;;4.80;2.70;;;20.60;63.00;;;;;;5029277;28;20018;-85
2021/06/03 07:19:36;;;;;;;4.90;3.08;;;20.80;64.10;;;;;;5027840;28;20104;-86
2021/06/03 07:22:02;;;;;;;5.47;3.30;;;20.80;61.80;;;;;;5015069;28;20029;-85
2021/06/03 07:24:28;;;;;;;3.92;2.55;;;20.90;62.60;;;;;;5027690;28;20040;-84
2021/06/03 07:26:53;;;;;;;4.80;3.03;;;20.90;62.10;;;;;;5020834;28;20397;-85
2021/06/03 07:29:19;;;;;;;5.50;2.17;;;21.10;61.20;;;;;;5026460;28;20030;-85
2021/06/03 07:31:45;;;;;;;6.75;2.88;;;21.20;55.50;;;;;;5021190;28;20018;-85
2021/06/03 07:34:11;;;;;;;6.68;2.60;;;21.20;58.10;;;;;;5021145;28;20033;-84
2021/06/03 07:36:36;;;;;;;4.65;3.08;;;21.30;56.70;;;;;;5026763;28;20111;-83
2021/06/03 07:39:06;;;;;;;7.68;3.53;;;21.20;58.30;;;;;;5026777;28;20029;-84
2021/06/03 07:41:32;;;;;;;6.80;2.93;;;21.20;59.00;;;;;;5011054;28;20031;-84
2021/06/03 07:43:58;;;;;;;5.82;2.53;;;21.20;58.40;;;;;;5011995;28;20288;-85
2021/06/03 07:46:23;;;;;;;6.50;2.95;;;21.30;56.90;;;;;;5029808;28;20029;-83
2021/06/03 07:48:49;;;;;;;5.20;2.92;;;21.40;58.30;;;;;;5023354;28;20037;-85
2021/06/03 07:51:15;;;;;;;3.97;2.08;;;21.50;59.90;;;;;;5030440;28;20056;-88
2021/06/03 07:53:40;;;;;;;5.10;2.35;;;21.60;54.50;;;;;;5022785;28;20056;-85
2021/06/03 07:56:07;;;;;;;4.60;2.00;;;21.70;54.00;;;;;;5011579;28;20022;-85
2021/06/03 07:58:33;;;;;;;3.85;2.15;;;21.70;50.80;;;;;;5031885;28;20481;-86
2021/06/03 08:01:00;;;;;;;7.38;1.95;;;21.70;51.80;;;;;;5030055;28;20037;-85
2021/06/03 08:03:27;;;;;;;3.35;1.60;;;21.70;51.10;;;;;;5028806;28;20025;-86
2021/06/03 08:05:53;;;;;;;3.05;1.50;;;21.80;54.00;;;;;;5028596;28;20113;-86
2021/06/03 08:08:19;;;;;;;1.73;1.10;;;22.00;49.60;;;;;;5008128;28;20055;-85
2021/06/03 08:10:44;;;;;;;2.78;1.63;;;21.90;48.30;;;;;;5029203;28;20108;-86
2021/06/03 08:13:10;;;;;;;6.78;1.88;;;21.80;47.80;;;;;;5028088;28;20128;-86
2021/06/03 08:15:39;;;;;;;2.63;0.90;;;21.80;50.30;;;;;;5028912;28;20071;-86
2021/06/03 08:18:06;;;;;;;2.75;1.20;;;21.90;46.80;;;;;;5025830;28;20045;-85
2021/06/03 08:20:39;;;;;;;4.32;1.60;;;22.00;49.00;;;;;;5028036;28;20026;-86
2021/06/03 08:23:06;;;;;;;1.75;1.60;;;21.90;48.20;;;;;;5008780;28;20408;-85
2021/06/03 08:25:32;;;;;;;5.68;1.92;;;22.00;49.30;;;;;;5020300;28;20137;-86
2021/06/03 08:27:58;;;;;;;4.28;1.90;;;22.00;51.20;;;;;;5028196;28;20041;-85
2021/06/03 08:30:25;;;;;;;2.72;1.58;;;22.00;48.50;;;;;;5028685;28;20029;-86
2021/06/03 08:32:51;;;;;;;3.50;1.45;;;22.00;49.50;;;;;;5022821;28;20117;-85
2021/06/03 08:35:19;;;;;;;4.78;1.77;;;22.20;48.80;;;;;;5024927;28;20075;-85
2021/06/03 08:37:47;;;;;;;2.03;1.42;;;22.30;50.30;;;;;;5029283;28;20058;-85
2021/06/03 08:40:16;;;;;;;4.95;1.48;;;22.30;48.90;;;;;;5020354;28;20445;-85
2021/06/03 08:42:42;;;;;;;12.77;1.95;;;22.50;49.50;;;;;;5025700;28;20087;-86
2021/06/03 08:45:09;;;;;;;3.50;2.15;;;22.50;50.40;;;;;;5022038;28;20041;-86
2021/06/03 08:47:35;;;;;;;4.60;2.30;;;22.40;50.60;;;;;;5017201;28;20384;-86
2021/06/03 08:50:05;;;;;;;4.05;1.92;;;22.30;51.00;;;;;;5019159;28;20026;-86
2021/06/03 08:52:31;;;;;;;4.28;1.95;;;22.20;49.60;;;;;;5026981;28;20592;-85
2021/06/03 08:54:57;;;;;;;4.93;2.28;;;22.20;50.00;;;;;;5028340;28;20033;-85
2021/06/03 08:57:24;;;;;;;4.50;1.50;;;22.30;49.20;;;;;;5019152;28;20025;-84
2021/06/03 08:59:51;;;;;;;4.75;1.60;;;22.40;49.60;;;;;;5019312;28;20160;-84
2021/06/03 09:02:17;;;;;;;4.93;2.00;;;22.60;49.80;;;;;;5020606;28;20028;-85
2021/06/03 09:04:43;;;;;;;4.88;1.50;;;22.80;50.10;;;;;;5002929;28;20392;-86
2021/06/03 09:07:37;;;;;;;5.30;1.15;;;22.80;45.50;;;;;;5027151;28;20033;-86
2021/06/03 09:10:34;;;;;;;4.22;1.30;;;23.00;46.80;;;;;;5026573;28;20036;-84
2021/06/03 09:13:26;;;;;;;2.20;1.15;;;23.00;45.60;;;;;;5025201;28;20041;-84
2021/06/03 09:15:57;;;;;;;4.53;1.33;;;23.10;43.80;;;;;;5022133;28;20026;-84
2021/06/03 09:18:34;;;;;;;3.58;1.60;;;23.20;45.50;;;;;;5019646;28;20109;-85
2021/06/03 09:21:25;;;;;;;2.97;1.42;;;23.30;46.10;;;;;;5028642;28;20501;-85
2021/06/03 09:23:58;;;;;;;;;;;23.00;44.30;;;;;;5027021;28;20032;-85
2021/06/03 09:26:26;;;;;;;3.28;1.80;;;22.90;45.20;;;;;;5027338;28;20008;-84
2021/06/03 09:28:53;;;;;;;3.47;1.40;;;22.70;44.00;;;;;;5028806;28;20065;-85
2021/06/03 09:31:22;;;;;;;3.10;1.10;;;22.70;45.90;;;;;;5034050;28;20457;-85
2021/06/03 09:33:56;;;;;;;1.77;1.10;;;22.90;50.80;;;;;;5025182;28;20084;-86
2021/06/03 09:36:27;;;;;;;3.97;1.10;;;23.00;45.40;;;;;;5031527;28;20540;-83
2021/06/03 09:38:57;;;;;;;2.55;1.40;;;23.10;46.70;;;;;;5023196;28;20048;-86
2021/06/03 09:41:23;;;;;;;;;;;23.20;46.70;;;;;;5015125;28;20109;-83
2021/06/03 09:43:56;;;;;;;6.97;2.47;;;23.30;45.80;;;;;;5014614;28;19912;-86
2021/06/03 09:46:22;;;;;;;4.18;1.10;;;23.40;44.00;;;;;;5033143;28;20381;-85
2021/06/03 09:48:49;;;;;;;4.85;1.13;;;23.60;44.10;;;;;;5026755;28;20042;-84
2021/06/03 09:51:22;;;;;;;3.30;1.75;;;23.80;45.70;;;;;;5010207;28;20030;-84
2021/06/03 09:53:56;;;;;;;4.43;1.48;;;24.00;47.40;;;;;;5020538;28;20057;-84
2021/06/03 09:56:28;;;;;;;3.83;1.65;;;24.10;44.10;;;;;;5031526;28;20065;-84
2021/06/03 09:58:54;;;;;;;2.65;1.38;;;24.00;44.60;;;;;;5030288;28;20021;-84
2021/06/03 10:01:49;;;;;;;2.30;1.58;;;24.10;44.40;;;;;;5033187;28;20040;-84
2021/06/03 10:04:21;;;;;;;3.15;1.00;;;24.20;43.60;;;;;;5029722;28;20091;-84
2021/06/03 10:06:56;;;;;;;5.45;1.40;;;24.30;44.30;;;;;;5030988;28;20033;-83
2021/06/03 10:09:37;;;;;;;10.63;1.77;;;24.20;42.60;;;;;;5032526;28;20030;-85
2021/06/03 10:12:04;;;;;;;2.35;1.02;;;24.30;42.40;;;;;;5030557;28;20082;-85
2021/06/03 10:14:29;;;;;;;3.65;1.35;;;24.30;43.40;;;;;;5031969;28;20384;-84
2021/06/03 10:16:55;;;;;;;5.60;1.35;;;24.20;43.50;;;;;;5031426;28;20148;-84
2021/06/03 10:19:23;;;;;;;4.93;1.27;;;24.30;44.50;;;;;;5033229;28;20017;-84
2021/06/03 10:22:27;;;;;;;2.08;1.20;;;24.60;43.50;;;;;;5015102;28;20503;-85
2021/06/03 10:25:11;;;;;;;8.05;1.88;;;24.80;44.80;;;;;;5029746;28;20028;-86
2021/06/03 10:27:38;;;;;;;3.40;1.25;;;24.90;41.90;;;;;;5030303;28;20080;-85
2021/06/03 10:30:12;;;;;;;3.10;1.38;;;24.90;42.20;;;;;;5022517;28;20125;-85
2021/06/03 10:32:38;;;;;;;4.18;1.38;;;25.10;43.30;;;;;;5018820;28;20029;-85
2021/06/03 10:35:10;;;;;;;20.83;2.58;;;25.20;43.20;;;;;;5016945;28;20041;-85
2021/06/03 10:37:38;;;;;;;29.52;2.63;;;25.40;45.30;;;;;;5011301;28;20060;-85
2021/06/03 10:40:07;;;;;;;5.57;1.50;;;25.60;43.10;;;;;;5026016;28;20029;-85
2021/06/03 10:42:33;;;;;;;2.97;1.58;;;25.30;42.90;;;;;;5005239;28;20393;-84
2021/06/03 10:45:01;;;;;;;3.38;1.38;;;25.00;42.00;;;;;;5022405;28;20482;-83
2021/06/03 10:47:27;;;;;;;4.07;1.58;;;24.80;43.00;;;;;;5027616;28;20089;-84
2021/06/03 10:49:54;;;;;;;5.40;1.60;;;24.30;41.60;;;;;;5027679;28;20040;-85
2021/06/03 10:52:21;;;;;;;3.97;1.20;;;23.90;42.40;;;;;;5031317;28;20485;-85
2021/06/03 10:54:51;;;;;;;2.55;1.30;;;23.70;44.60;;;;;;5008251;28;20060;-86
2021/06/03 10:57:21;;;;;;;6.80;1.95;;;23.60;43.00;;;;;;5029119;28;20013;-86
2021/06/03 10:59:49;;;;;;;2.03;1.23;;;23.60;43.30;;;;;;5025909;28;20091;-86
2021/06/03 11:02:15;;;;;;;3.67;1.63;;;23.40;44.10;;;;;;5019821;28;20087;-88
2021/06/03 11:04:43;;;;;;;10.75;1.92;;;23.30;45.60;;;;;;5025531;28;20116;-84
2021/06/03 11:07:10;;;;;;;2.47;1.40;;;23.10;43.90;;;;;;5008311;28;20061;-85
2021/06/03 11:09:42;;;;;;;1.52;1.20;;;23.10;43.70;;;;;;5027612;28;20120;-85
2021/06/03 11:12:16;;;;;;;2.92;1.50;;;23.20;44.60;;;;;;5027992;28;20042;-84
2021/06/03 11:15:13;;;;;;;3.75;1.60;;;23.20;44.50;;;;;;5011565;28;20499;-85
2021/06/03 11:17:54;;;;;;;4.03;1.48;;;23.40;44.20;;;;;;5029888;28;20083;-86
2021/06/03 11:20:36;;;;;;;7.22;1.70;;;23.60;45.50;;;;;;5025329;28;20375;-85
2021/06/03 11:23:38;;;;;;;3.05;1.50;;;23.80;43.30;;;;;;5026240;28;20049;-85
2021/06/03 11:26:07;;;;;;;6.38;1.75;;;23.70;43.50;;;;;;5028135;28;20044;-85
2021/06/03 11:28:33;;;;;;;3.65;1.70;;;23.80;45.00;;;;;;5027307;28;20146;-86
2021/06/03 11:31:24;;;;;;;4.25;1.20;;;23.60;44.70;;;;;;5028262;28;20034;-85
2021/06/03 11:34:11;;;;;;;3.28;1.30;;;23.60;45.10;;;;;;5027286;28;20121;-86
2021/06/03 11:36:40;;;;;;;3.90;1.58;;;23.40;45.60;;;;;;5023124;28;20037;-85
2021/06/03 11:39:32;;;;;;;4.13;1.58;;;23.20;45.50;;;;;;5023226;28;20021;-86
2021/06/03 11:42:22;;;;;;;14.80;2.08;;;23.10;45.90;;;;;;5012291;28;20064;-85
2021/06/03 11:45:08;;;;;;;3.50;1.40;;;23.10;46.50;;;;;;5024767;28;20083;-85
2021/06/03 11:47:36;;;;;;;3.03;1.58;;;23.10;47.50;;;;;;5012070;28;20053;-85
2021/06/03 11:50:13;;;;;;;2.30;1.38;;;23.10;46.80;;;;;;5019206;28;20481;-85
2021/06/03 11:52:40;;;;;;;4.05;1.55;;;22.90;47.00;;;;;;5022481;28;20489;-85
2021/06/03 11:55:08;;;;;;;3.90;1.55;;;22.90;46.10;;;;;;5022445;28;20042;-86
2021/06/03 11:57:36;;;;;;;5.03;1.83;;;22.80;47.30;;;;;;5022614;28;20485;-84
2021/06/03 12:00:06;;;;;;;3.72;1.80;;;22.70;46.30;;;;;;5020653;28;20026;-85
2021/06/03 12:02:34;;;;;;;6.35;1.70;;;22.60;47.10;;;;;;5022437;28;20076;-86
2021/06/03 12:05:09;;;;;;;8.40;1.77;;;22.60;47.00;;;;;;5017456;28;20025;-86
2021/06/03 12:07:53;;;;;;;5.85;2.25;;;22.80;47.10;;;;;;5019061;28;20029;-85
2021/06/03 12:10:20;;;;;;;2.90;1.75;;;22.80;45.70;;;;;;5021435;28;20033;-85
2021/06/03 12:12:47;;;;;;;5.70;1.67;;;23.00;45.40;;;;;;5017574;28;20397;-84
2021/06/03 12:15:21;;;;;;;3.15;1.55;;;23.10;45.50;;;;;;5002620;28;20036;-87
2021/06/03 12:17:53;;;;;;;3.97;1.60;;;23.20;45.40;;;;;;5020683;28;20481;-85
2021/06/03 12:20:19;;;;;;;4.60;1.50;;;23.10;46.80;;;;;;5016035;28;20026;-86
2021/06/03 12:22:53;;;;;;;4.35;1.50;;;23.30;47.40;;;;;;5088577;27;20436;-72
2021/06/03 12:25:19;;;;;;;4.30;1.75;;;23.50;45.50;;;;;;5062907;28;20549;-72
2021/06/03 12:27:47;;;;;;;4.72;1.65;;;23.60;45.50;;;;;;5063365;28;20397;-73
2021/06/03 12:30:18;;;;;;;4.97;1.65;;;23.80;46.20;;;;;;5060989;28;20032;-72
2021/06/03 12:33:04;;;;;;;3.60;1.20;;;23.90;44.70;;;;;;5065243;28;20032;-72
2021/06/03 12:35:54;;;;;;;2.97;1.40;;;24.00;45.50;;;;;;5064469;28;20170;-73
2021/06/03 12:38:29;;;;;;;;;;;24.10;44.90;;;;;;5065321;28;20036;-72
2021/06/03 12:41:07;;;;;;;5.28;1.50;;;24.10;45.90;;;;;;5066564;28;19923;-72
2021/06/03 12:43:38;;;;;;;18.35;2.70;;;24.20;44.90;;;;;;5061241;28;20682;-72
2021/06/03 12:46:05;;;;;;;4.03;1.52;;;24.20;44.70;;;;;;5063633;28;20033;-72
2021/06/03 12:48:31;;;;;;;9.02;2.05;;;24.10;44.40;;;;;;5040973;28;20093;-73
2021/06/03 12:50:59;;;;;;;5.88;1.75;;;24.10;45.40;;;;;;5042682;28;20029;-72